Time;durP1;ratioP1;P1;durP2;ratioP2;P2;SDS_P1;SDS_P2;PMS_P1;PMS_P2;Temp;Humidity;BMP_temperature;BMP_pressure;BME280_temperature;BME280_humidity;BME280_pressure;Samples;Min_cycle;Max_cycle;Signal;HPM_P1;HPM_P2
2023/09/07 00:00:44;;;;;;;15.37;12.57;;;;;;;21.81;89.33;95355.91;5004268;28;20843;-78
2023/09/07 00:03:11;;;;;;;14.43;12.40;;;;;;;21.82;89.45;95362.06;5053663;28;20500;-78
2023/09/07 00:05:38;;;;;;;12.00;10.80;;;;;;;21.84;89.31;95362.72;5054056;28;20446;-78
2023/09/07 00:08:05;;;;;;;14.13;12.30;;;;;;;21.84;89.46;95354.69;5053946;28;20444;-78
2023/09/07 00:10:35;;;;;;;12.40;11.20;;;;;;;21.86;89.22;95352.66;5054040;28;20434;-78
2023/09/07 00:13:02;;;;;;;13.47;11.93;;;;;;;21.78;89.53;95350.94;5062119;28;20564;-77
2023/09/07 00:15:30;;;;;;;14.50;13.03;;;;;;;21.77;89.17;95351.97;5076201;28;20448;-78
2023/09/07 00:17:57;;;;;;;16.70;12.43;;;;;;;21.75;88.64;95353.16;5076357;28;20449;-78
2023/09/07 00:20:25;;;;;;;13.30;11.83;;;;;;;21.68;88.44;95360.25;5075926;28;20447;-78
2023/09/07 00:22:51;;;;;;;21.03;11.83;;;;;;;21.68;88.25;95360.25;5076149;28;20517;-78
2023/09/07 00:25:20;;;;;;;12.73;11.47;;;;;;;21.62;88.30;95357.31;5076043;28;20450;-78
2023/09/07 00:27:46;;;;;;;13.93;12.20;;;;;;;21.55;88.74;95361.75;5075818;28;20948;-78
2023/09/07 00:30:14;;;;;;;13.40;12.00;;;;;;;21.49;88.79;95356.34;5075723;28;20461;-77
2023/09/07 00:32:42;;;;;;;13.37;12.00;;;;;;;21.52;89.09;95355.97;5075910;28;20501;-78
2023/09/07 00:35:10;;;;;;;12.43;11.30;;;;;;;21.52;88.82;95355.97;5075672;28;20433;-78
2023/09/07 00:37:38;;;;;;;14.00;12.50;;;;;;;21.53;88.77;95354.94;5075757;28;20448;-78
2023/09/07 00:40:08;;;;;;;15.00;12.97;;;;;;;21.53;88.60;95358.44;5075613;28;20445;-78
2023/09/07 00:42:37;;;;;;;13.53;12.17;;;;;;;21.55;89.01;95348.41;5075691;28;20486;-78
2023/09/07 00:45:04;;;;;;;14.23;12.80;;;;;;;21.52;88.92;95356.78;5057002;28;20434;-77
2023/09/07 00:47:34;;;;;;;20.90;13.03;;;;;;;21.27;89.28;95347.41;5024524;28;20451;-78
2023/09/07 00:50:02;;;;;;;14.83;12.30;;;;;;;21.12;90.02;95344.72;5057408;28;20434;-78
2023/09/07 00:52:30;;;;;;;13.43;12.13;;;;;;;21.03;91.19;95357.31;5076150;28;21048;-78
2023/09/07 00:54:57;;;;;;;15.17;13.57;;;;;;;20.93;92.40;95345.25;5076183;28;20453;-78
2023/09/07 00:57:24;;;;;;;16.57;13.07;;;;;;;21.00;92.48;95347.00;5056744;28;20459;-78
2023/09/07 00:59:50;;;;;;;14.20;12.80;;;;;;;20.76;93.31;95347.22;5074863;28;20469;-78
2023/09/07 01:02:18;;;;;;;16.50;14.80;;;;;;;20.78;93.91;95347.06;5074617;28;20503;-78
2023/09/07 01:04:45;;;;;;;16.10;13.97;;;;;;;20.58;94.30;95344.91;5074424;28;20522;-78
2023/09/07 01:07:18;;;;;;;17.87;13.40;;;;;;;20.78;94.21;95352.38;5075111;28;20458;-78
2023/09/07 01:09:48;;;;;;;21.87;13.10;;;;;;;20.88;93.97;95344.97;5073013;28;20446;-78
2023/09/07 01:12:15;;;;;;;14.90;13.40;;;;;;;20.92;93.57;95348.94;5056284;28;20910;-78
2023/09/07 01:14:42;;;;;;;17.03;13.50;;;;;;;20.86;93.38;95345.16;5075136;28;20925;-78
2023/09/07 01:17:10;;;;;;;15.43;13.30;;;;;;;20.97;93.33;95357.22;5075011;28;20807;-78
2023/09/07 01:19:36;;;;;;;15.57;13.97;;;;;;;21.03;93.07;95351.97;5075347;28;20460;-78
2023/09/07 01:22:05;;;;;;;15.87;14.03;;;;;;;21.08;92.72;95355.91;5075030;28;20495;-79
2023/09/07 01:24:34;;;;;;;14.77;13.23;;;;;;;21.02;92.69;95358.31;5074968;28;20450;-78
2023/09/07 01:27:03;;;;;;;13.77;12.30;;;;;;;21.08;92.45;95347.91;5075089;28;20452;-78
2023/09/07 01:29:30;;;;;;;16.13;14.07;;;;;;;21.17;91.93;95350.34;5074788;28;20446;-78
2023/09/07 01:31:56;;;;;;;17.60;13.47;;;;;;;21.17;91.72;95349.50;5074844;28;20445;-78
2023/09/07 01:34:23;;;;;;;18.87;16.10;;;;;;;21.14;91.05;95352.53;5074725;28;20447;-78
2023/09/07 01:36:50;;;;;;;16.07;14.43;;;;;;;21.19;91.04;95342.13;5074883;28;20447;-78
2023/09/07 01:39:18;;;;;;;15.43;13.87;;;;;;;21.27;90.72;95344.72;5039119;28;20449;-78
2023/09/07 01:41:48;;;;;;;15.03;13.50;;;;;;;21.36;91.04;95351.63;5073962;28;20930;-78
2023/09/07 01:44:15;;;;;;;17.47;15.60;;;;;;;21.41;90.72;95349.25;5074533;28;20449;-78
2023/09/07 01:46:42;;;;;;;15.70;13.97;;;;;;;21.47;90.66;95348.50;5074508;28;20433;-78
2023/09/07 01:49:08;;;;;;;14.67;13.13;;;;;;;21.50;90.60;95353.47;5074340;28;20950;-78
2023/09/07 01:51:35;;;;;;;15.43;13.63;;;;;;;21.53;90.15;95342.41;5074653;28;20779;-78
2023/09/07 01:54:02;;;;;;;15.47;13.87;;;;;;;21.53;89.95;95334.41;5074445;28;20470;-78
2023/09/07 01:56:30;;;;;;;19.83;13.60;;;;;;;21.62;90.10;95341.28;5074291;28;20528;-78
2023/09/07 01:58:57;;;;;;;14.30;12.70;;;;;;;21.58;89.93;95345.34;5074445;28;20457;-78
2023/09/07 02:01:25;;;;;;;15.50;13.90;;;;;;;21.55;89.92;95345.72;5073993;28;20443;-78
2023/09/07 02:03:52;;;;;;;19.23;13.80;;;;;;;21.56;89.75;95343.88;5073915;28;20483;-78
2023/09/07 02:06:19;;;;;;;17.17;15.47;;;;;;;21.51;89.88;95352.47;5073842;28;20452;-78
2023/09/07 02:08:46;;;;;;;15.73;14.13;;;;;;;21.40;90.76;95346.78;5073770;28;20447;-78
2023/09/07 02:11:13;;;;;;;19.23;15.87;;;;;;;21.16;91.74;95345.19;5074004;28;20803;-78
2023/09/07 02:13:44;;;;;;;18.37;15.20;;;;;;;20.96;92.89;95335.03;5073837;28;20806;-78
2023/09/07 02:16:11;;;;;;;17.50;15.20;;;;;;;21.02;92.55;95334.28;5074006;28;20433;-77
2023/09/07 02:18:39;;;;;;;17.17;15.47;;;;;;;21.12;92.23;95338.56;5073704;28;20453;-78
2023/09/07 02:21:07;;;;;;;16.30;14.63;;;;;;;20.93;92.90;95339.91;5073483;28;20527;-78
2023/09/07 02:23:35;;;;;;;22.73;17.73;;;;;;;20.84;93.44;95338.34;5073822;28;20606;-78
2023/09/07 02:26:02;;;;;;;17.13;14.30;;;;;;;20.74;94.12;95346.59;5073686;28;21211;-78
2023/09/07 02:28:29;;;;;;;19.83;16.93;;;;;;;20.73;94.47;95339.59;5073478;28;20441;-78
2023/09/07 02:31:04;;;;;;;25.80;15.80;;;;;;;20.62;94.57;95343.53;5073974;28;20446;-78
2023/09/07 02:33:31;;;;;;;21.30;15.87;;;;;;;20.55;95.10;95352.47;5073691;28;20453;-78
2023/09/07 02:35:58;;;;;;;18.47;16.63;;;;;;;20.55;95.81;95347.94;5073668;28;20445;-78
2023/09/07 02:38:25;;;;;;;18.03;16.07;;;;;;;20.46;96.44;95342.84;5073331;28;20453;-78
2023/09/07 02:40:52;;;;;;;18.47;16.13;;;;;;;20.49;96.61;95348.66;5073245;28;20443;-78
2023/09/07 02:43:19;;;;;;;17.63;14.70;;;;;;;20.46;96.92;95345.50;5073340;28;20493;-79
2023/09/07 02:45:46;;;;;;;23.43;14.97;;;;;;;20.48;96.49;95348.81;5073487;28;20465;-78
2023/09/07 02:48:14;;;;;;;19.97;16.83;;;;;;;20.55;96.16;95357.78;5073314;28;20436;-78
2023/09/07 02:51:03;;;;;;;18.60;16.33;;;;;;;20.57;96.00;95348.59;5073395;28;20448;-78
2023/09/07 02:53:30;;;;;;;21.10;14.80;;;;;;;20.69;95.61;95351.66;5010842;28;20488;-78
2023/09/07 02:55:57;;;;;;;17.90;16.10;;;;;;;20.79;95.23;95351.38;5011344;28;20484;-78
2023/09/07 02:58:24;;;;;;;18.67;16.80;;;;;;;20.84;95.15;95362.34;5010935;28;20521;-78
2023/09/07 03:00:51;;;;;;;26.93;17.60;;;;;;;20.91;95.22;95361.44;5011246;28;20448;-78
2023/09/07 03:03:19;;;;;;;18.03;16.10;;;;;;;20.94;95.34;95354.91;5010822;28;20485;-78
2023/09/07 03:05:46;;;;;;;19.67;15.97;;;;;;;20.92;95.59;95362.28;5010715;28;20442;-78
2023/09/07 03:08:13;;;;;;;21.23;16.90;;;;;;;20.89;96.40;95363.47;5010643;28;20803;-78
2023/09/07 03:10:40;;;;;;;23.80;17.73;;;;;;;20.79;96.59;95354.88;5010925;28;20481;-78
2023/09/07 03:13:07;;;;;;;21.87;17.60;;;;;;;20.68;96.29;95363.31;5010766;28;20449;-78
2023/09/07 03:15:34;;;;;;;21.53;18.37;;;;;;;20.65;96.97;95358.34;5010607;28;20440;-78
2023/09/07 03:18:03;;;;;;;19.83;17.77;;;;;;;20.53;96.42;95359.78;5010648;28;20451;-78
2023/09/07 03:20:33;;;;;;;21.60;18.47;;;;;;;20.54;97.03;95356.13;5010255;28;20451;-77
2023/09/07 03:23:00;;;;;;;23.40;19.60;;;;;;;20.49;97.27;95353.16;5010098;28;20546;-78
2023/09/07 03:25:27;;;;;;;21.70;19.40;;;;;;;20.49;97.33;95355.81;5010562;28;20472;-78
2023/09/07 03:27:54;;;;;;;21.10;18.80;;;;;;;20.47;97.57;95350.66;4978083;28;20453;-77
2023/09/07 03:30:21;;;;;;;27.90;20.43;;;;;;;20.18;99.24;95353.19;5037705;28;20436;-78
2023/09/07 03:32:48;;;;;;;21.43;18.87;;;;;;;20.10;99.46;95354.91;5072585;28;20442;-78
2023/09/07 03:35:15;;;;;;;22.03;19.77;;;;;;;20.11;99.58;95348.59;5072210;28;20450;-77
2023/09/07 03:37:44;;;;;;;30.83;20.13;;;;;;;20.19;99.63;95353.00;5071966;28;20943;-77
2023/09/07 03:40:11;;;;;;;22.90;19.13;;;;;;;20.28;100.00;95356.47;5072429;28;20437;-78
2023/09/07 03:42:39;;;;;;;22.33;19.20;;;;;;;20.31;100.00;95351.59;5072379;28;20515;-77
2023/09/07 03:45:07;;;;;;;24.43;20.63;;;;;;;20.37;100.00;95352.72;5072297;28;20913;-77
2023/09/07 03:47:33;;;;;;;26.93;19.53;;;;;;;20.45;100.00;95362.53;5072242;28;20765;-77
2023/09/07 03:50:00;;;;;;;23.90;19.00;;;;;;;20.47;100.00;95357.84;5037004;28;20442;-77
2023/09/07 03:52:27;;;;;;;21.10;18.90;;;;;;;20.49;100.00;95361.16;5072431;28;20868;-78
2023/09/07 03:54:56;;;;;;;24.27;18.37;;;;;;;20.48;100.00;95372.81;5072207;28;20446;-78
2023/09/07 03:57:23;;;;;;;21.33;19.10;;;;;;;20.42;100.00;95372.53;5072116;28;20527;-78
2023/09/07 03:59:50;;;;;;;23.77;19.30;;;;;;;20.37;100.00;95374.88;5072577;28;20442;-77
2023/09/07 04:02:17;;;;;;;18.33;16.10;;;;;;;20.37;100.00;95377.53;5071995;28;20437;-77
2023/09/07 04:04:47;;;;;;;24.33;18.53;;;;;;;20.36;100.00;95375.88;5071990;28;20528;-77
2023/09/07 04:07:13;;;;;;;23.03;16.83;;;;;;;20.45;100.00;95370.50;5072178;28;20445;-76
2023/09/07 04:09:40;;;;;;;18.93;17.07;;;;;;;20.69;100.00;95380.97;5073136;28;20848;-76
2023/09/07 04:12:09;;;;;;;19.97;17.10;;;;;;;21.02;98.15;95381.50;5071963;28;20453;-76
2023/09/07 04:14:36;;;;;;;23.53;18.50;;;;;;;21.23;97.08;95375.44;5071978;28;20509;-76
2023/09/07 04:17:03;;;;;;;21.47;19.17;;;;;;;21.15;96.47;95375.56;5071911;28;20445;-76
2023/09/07 04:19:30;;;;;;;21.50;19.27;;;;;;;21.10;96.65;95381.41;5071886;28;20760;-76
2023/09/07 04:21:58;;;;;;;23.90;19.67;;;;;;;20.86;96.72;95374.50;5072134;28;20756;-76
2023/09/07 04:24:25;;;;;;;21.20;18.20;;;;;;;20.66;96.83;95379.50;5071676;28;21192;-76
2023/09/07 04:26:52;;;;;;;25.93;20.27;;;;;;;20.59;97.72;95375.91;5071972;28;20451;-76
2023/09/07 04:29:20;;;;;;;22.37;20.10;;;;;;;20.45;97.80;95379.34;5071782;28;20447;-76
2023/09/07 04:31:46;;;;;;;22.37;19.07;;;;;;;20.38;98.85;95378.38;5071996;28;20446;-75
2023/09/07 04:34:13;;;;;;;24.10;18.80;;;;;;;20.25;99.25;95383.47;5075357;28;20833;-75
2023/09/07 04:36:40;;;;;;;25.50;20.33;;;;;;;20.31;98.85;95382.75;5075591;28;20456;-76
2023/09/07 04:39:07;;;;;;;23.87;21.27;;;;;;;20.33;99.22;95386.09;5075653;28;20446;-76
2023/09/07 04:41:34;;;;;;;24.63;20.90;;;;;;;20.36;99.88;95386.56;5075559;28;20521;-77
2023/09/07 04:44:00;;;;;;;23.33;20.27;;;;;;;20.37;100.00;95393.53;5075238;28;20488;-76
2023/09/07 04:46:28;;;;;;;21.13;18.90;;;;;;;20.34;99.22;95388.56;5075600;28;20452;-74
2023/09/07 04:48:55;;;;;;;22.07;17.80;;;;;;;20.33;98.79;95389.56;5080952;28;20838;-75
2023/09/07 04:51:23;;;;;;;21.03;18.87;;;;;;;20.27;98.01;95398.28;5077958;28;20441;-75
2023/09/07 04:53:50;;;;;;;20.73;18.57;;;;;;;20.21;98.10;95390.16;5075848;28;20785;-77
2023/09/07 04:56:17;;;;;;;24.13;19.30;;;;;;;20.01;98.18;95393.28;5075176;28;20465;-76
2023/09/07 04:58:44;;;;;;;22.93;18.40;;;;;;;20.05;98.49;95383.09;5075467;28;20433;-75
2023/09/07 05:01:12;;;;;;;22.47;19.80;;;;;;;20.21;100.00;95398.13;5075301;28;20444;-76
2023/09/07 05:03:41;;;;;;;27.03;20.43;;;;;;;20.31;100.00;95393.44;5074988;28;20485;-77
2023/09/07 05:06:07;;;;;;;21.67;19.27;;;;;;;20.30;100.00;95395.25;5074994;28;20496;-76
2023/09/07 05:08:34;;;;;;;21.30;18.93;;;;;;;20.30;100.00;95397.94;5039542;28;20452;-77
2023/09/07 05:11:03;;;;;;;25.53;20.40;;;;;;;20.22;100.00;95400.63;5074784;28;20915;-76
2023/09/07 05:13:30;;;;;;;24.67;20.30;;;;;;;20.14;100.00;95384.69;5077513;28;20554;-78
2023/09/07 05:16:01;;;;;;;28.90;19.73;;;;;;;20.08;100.00;95398.72;5094208;28;20804;-78
2023/09/07 05:18:28;;;;;;;25.50;20.93;;;;;;;20.07;100.00;95399.75;5078370;28;20949;-78
2023/09/07 05:20:56;;;;;;;26.53;21.53;;;;;;;20.06;100.00;95401.56;5093599;28;20436;-78
2023/09/07 05:23:24;;;;;;;25.33;21.70;;;;;;;20.05;100.00;95399.91;5090698;28;20613;-78
2023/09/07 05:25:53;;;;;;;30.73;21.80;;;;;;;20.08;100.00;95406.72;5074844;28;20450;-78
2023/09/07 05:28:21;;;;;;;22.63;20.20;;;;;;;20.03;100.00;95412.59;5092105;28;20445;-78
2023/09/07 05:30:48;;;;;;;24.30;20.37;;;;;;;19.88;100.00;95413.50;5094685;28;20448;-78
2023/09/07 05:33:16;;;;;;;28.27;22.10;;;;;;;20.06;100.00;95411.41;5093923;28;20789;-79
2023/09/07 05:35:45;;;;;;;25.27;19.13;;;;;;;19.99;100.00;95416.63;5059553;28;20448;-80
2023/09/07 05:38:14;;;;;;;27.90;20.03;;;;;;;20.13;100.00;95415.03;5085358;28;20956;-77
2023/09/07 05:40:42;;;;;;;23.33;20.90;;;;;;;20.05;100.00;95415.06;5074227;28;20447;-77
2023/09/07 05:43:09;;;;;;;30.23;21.47;;;;;;;20.38;100.00;95402.38;5075657;28;20465;-76
2023/09/07 05:45:38;;;;;;;28.10;19.60;;;;;;;20.38;100.00;95405.84;5073759;28;20834;-77
2023/09/07 05:48:05;;;;;;;26.07;19.70;;;;;;;20.31;100.00;95417.41;5093100;28;20930;-77
2023/09/07 05:50:34;;;;;;;21.17;18.63;;;;;;;20.26;100.00;95415.28;5093160;28;20443;-76
2023/09/07 05:53:01;;;;;;;25.13;18.20;;;;;;;20.29;100.00;95406.94;5073390;28;20477;-77
2023/09/07 05:55:29;;;;;;;21.40;19.10;;;;;;;20.21;100.00;95408.81;5074011;28;20454;-77
2023/09/07 05:57:56;;;;;;;21.67;18.50;;;;;;;20.12;100.00;95413.34;5073919;28;20440;-77
2023/09/07 06:00:23;;;;;;;27.13;17.83;;;;;;;20.05;100.00;95410.56;5073653;28;20442;-76
2023/09/07 06:02:51;;;;;;;22.20;17.70;;;;;;;20.22;100.00;95405.97;5073499;28;20445;-77
2023/09/07 06:05:18;;;;;;;21.43;17.23;;;;;;;20.37;100.00;95409.53;5073437;28;20484;-77
2023/09/07 06:07:45;;;;;;;22.17;17.40;;;;;;;20.66;100.00;95413.34;5073513;28;20459;-77
2023/09/07 06:10:12;;;;;;;19.60;15.47;;;;;;;21.19;100.00;95414.22;5073565;28;20438;-77
2023/09/07 06:12:40;;;;;;;20.43;17.27;;;;;;;21.71;94.17;95429.34;5073588;28;20435;-77
2023/09/07 06:15:08;;;;;;;26.27;15.90;;;;;;;22.17;92.23;95425.44;5073434;28;20437;-77
2023/09/07 06:17:35;;;;;;;15.30;13.37;;;;;;;22.46;89.11;95432.53;5038308;28;20539;-77
2023/09/07 06:20:02;;;;;;;18.60;13.77;;;;;;;22.71;85.13;95427.63;5073614;28;20431;-77
2023/09/07 06:22:29;;;;;;;23.23;15.10;;;;;;;22.99;84.04;95433.06;5073708;28;20438;-77
2023/09/07 06:24:56;;;;;;;19.30;13.07;;;;;;;23.30;84.28;95430.00;5073150;28;20485;-77
2023/09/07 06:27:23;;;;;;;16.50;12.10;;;;;;;23.63;78.98;95432.09;5073226;28;20958;-77
2023/09/07 06:29:52;;;;;;;15.00;12.97;;;;;;;23.91;78.28;95443.59;5073324;28;20443;-77
2023/09/07 06:32:19;;;;;;;13.53;11.47;;;;;;;24.33;80.09;95439.88;5072777;28;20819;-77
2023/09/07 06:34:53;;;;;;;13.17;11.67;;;;;;;24.61;75.51;95441.63;5072975;28;20487;-77
2023/09/07 06:37:19;;;;;;;13.67;12.23;;;;;;;25.10;75.48;95446.63;5073272;28;20809;-77
2023/09/07 06:39:46;;;;;;;12.93;11.53;;;;;;;25.35;71.39;95448.72;5072895;28;20441;-77
2023/09/07 06:42:15;;;;;;;13.40;11.87;;;;;;;25.36;70.47;95439.59;5072981;28;20498;-77
2023/09/07 06:44:42;;;;;;;14.23;11.60;;;;;;;25.37;69.92;95436.72;5072567;28;20523;-77
2023/09/07 06:47:10;;;;;;;17.87;12.17;;;;;;;25.43;70.73;95441.25;5072718;28;20441;-77
2023/09/07 06:49:38;;;;;;;12.67;11.37;;;;;;;25.61;70.31;95443.31;5072910;28;20502;-77
2023/09/07 06:52:05;;;;;;;13.33;12.07;;;;;;;25.83;70.35;95442.06;5072855;28;20550;-77
2023/09/07 06:54:32;;;;;;;12.23;10.93;;;;;;;25.92;68.09;95440.78;5072593;28;20833;-77
2023/09/07 06:56:59;;;;;;;12.93;11.63;;;;;;;25.85;68.16;95439.16;5072506;28;20444;-77
2023/09/07 06:59:26;;;;;;;24.43;10.90;;;;;;;25.59;67.46;95440.00;5072438;28;20437;-77
2023/09/07 07:01:53;;;;;;;14.63;11.70;;;;;;;25.56;67.71;95433.19;5072975;28;20498;-77
2023/09/07 07:04:21;;;;;;;13.73;12.03;;;;;;;25.41;67.02;95429.88;5020787;28;21024;-77
2023/09/07 07:06:48;;;;;;;17.73;11.90;;;;;;;25.44;68.41;95432.16;5020554;28;21036;-77
2023/09/07 07:09:14;;;;;;;14.10;10.10;;;;;;;24.57;69.14;95422.38;5072155;28;20454;-77
2023/09/07 07:11:42;;;;;;;11.00;9.63;;;;;;;24.39;70.73;95416.78;5021105;28;20512;-77
2023/09/07 07:14:11;;;;;;;16.93;11.00;;;;;;;24.57;71.62;95422.38;5072324;28;20506;-77
2023/09/07 07:16:38;;;;;;;18.17;10.63;;;;;;;24.27;71.86;95421.84;5072517;28;20506;-77
2023/09/07 07:19:04;;;;;;;10.87;9.77;;;;;;;24.01;70.21;95427.97;5072360;28;20813;-77
2023/09/07 07:21:32;;;;;;;12.40;10.30;;;;;;;23.60;72.91;95425.28;5071991;28;20448;-77
2023/09/07 07:23:59;;;;;;;12.13;10.83;;;;;;;23.59;73.63;95425.47;5020786;28;20486;-77
2023/09/07 07:26:26;;;;;;;19.17;10.50;;;;;;;23.45;73.93;95432.59;5072355;28;20443;-77
2023/09/07 07:28:53;;;;;;;12.70;11.40;;;;;;;23.18;75.11;95436.94;5072205;28;20440;-77
2023/09/07 07:31:20;;;;;;;10.97;9.67;;;;;;;23.20;76.82;95442.91;5072407;28;20437;-77
2023/09/07 07:33:48;;;;;;;14.37;10.70;;;;;;;23.26;76.75;95443.97;5072348;28;20448;-77
2023/09/07 07:36:14;;;;;;;11.67;10.43;;;;;;;23.43;77.14;95438.16;5072240;28;20478;-77
2023/09/07 07:38:43;;;;;;;16.10;10.60;;;;;;;23.53;74.85;95436.97;5072221;28;20448;-77
2023/09/07 07:41:09;;;;;;;13.83;11.23;;;;;;;23.63;75.55;95442.81;5072012;28;20916;-77
2023/09/07 07:43:36;;;;;;;13.47;10.47;;;;;;;23.53;75.14;95442.31;5072340;28;20450;-77
2023/09/07 07:46:03;;;;;;;14.50;8.63;;;;;;;23.21;74.34;95439.22;5071815;28;20482;-77
2023/09/07 07:48:30;;;;;;;11.33;10.23;;;;;;;23.17;74.50;95445.97;5071960;28;20776;-77
2023/09/07 07:50:57;;;;;;;14.27;9.83;;;;;;;23.13;75.16;95437.50;5072021;28;20946;-77
2023/09/07 07:53:24;;;;;;;11.10;10.00;;;;;;;23.13;76.44;95436.66;5071548;28;20472;-77
2023/09/07 07:55:52;;;;;;;10.90;9.90;;;;;;;22.98;76.36;95433.25;5071873;28;20478;-77
2023/09/07 07:58:19;;;;;;;12.33;11.07;;;;;;;22.84;75.69;95437.66;5071974;28;20452;-77
2023/09/07 08:00:47;;;;;;;12.03;10.47;;;;;;;22.93;76.95;95433.00;5072081;28;20497;-77
2023/09/07 08:03:14;;;;;;;14.37;8.40;;;;;;;22.97;73.24;95442.31;5071830;28;20435;-77
2023/09/07 08:05:41;;;;;;;9.57;8.57;;;;;;;23.04;71.99;95437.81;5071662;28;20487;-77
2023/09/07 08:08:08;;;;;;;9.67;8.77;;;;;;;23.02;71.94;95439.88;5073625;28;20441;-77
2023/09/07 08:10:36;;;;;;;14.30;9.40;;;;;;;23.13;73.30;95436.66;5075854;28;20477;-77
2023/09/07 08:13:05;;;;;;;10.47;9.10;;;;;;;23.21;73.09;95439.22;5040334;28;20452;-77
2023/09/07 08:15:33;;;;;;;18.00;8.60;;;;;;;23.63;73.12;95429.41;5075786;28;20455;-77
2023/09/07 08:18:00;;;;;;;13.93;9.93;;;;;;;24.09;70.62;95427.78;5075486;28;20442;-77
2023/09/07 08:20:29;;;;;;;9.43;8.37;;;;;;;24.32;65.84;95429.34;5075395;28;20512;-77
2023/09/07 08:22:56;;;;;;;10.00;8.37;;;;;;;24.47;65.40;95431.84;5075418;28;20450;-77
2023/09/07 08:25:23;;;;;;;9.20;8.30;;;;;;;24.82;64.08;95429.84;5023464;28;20483;-77
2023/09/07 08:27:49;;;;;;;10.03;8.23;;;;;;;24.96;62.26;95418.94;5075597;28;20790;-77
2023/09/07 08:30:18;;;;;;;13.40;9.20;;;;;;;24.94;63.53;95417.50;5023521;28;20452;-77
2023/09/07 08:32:47;;;;;;;9.43;7.67;;;;;;;24.28;61.92;95406.63;5075119;28;20437;-77
2023/09/07 08:35:16;;;;;;;12.37;8.40;;;;;;;24.19;63.22;95415.84;5039998;28;20873;-77
2023/09/07 08:37:43;;;;;;;12.87;9.90;;;;;;;23.90;66.81;95422.34;5075373;28;20911;-77
2023/09/07 08:40:11;;;;;;;13.87;10.00;;;;;;;23.85;66.63;95422.13;5075034;28;20498;-77
2023/09/07 08:42:38;;;;;;;10.87;9.03;;;;;;;23.85;66.93;95420.25;5039932;28;21001;-77
2023/09/07 08:45:07;;;;;;;9.10;8.20;;;;;;;23.96;66.85;95422.38;5074520;28;20575;-77
2023/09/07 08:47:37;;;;;;;11.70;8.83;;;;;;;24.21;67.51;95416.47;5074959;28;20894;-77
2023/09/07 08:50:07;;;;;;;9.53;7.87;;;;;;;24.32;63.17;95413.25;5075005;28;20444;-77
2023/09/07 08:52:35;;;;;;;8.40;7.60;;;;;;;24.36;61.16;95422.56;5075436;28;20468;-77
2023/09/07 08:55:04;;;;;;;8.90;8.07;;;;;;;24.51;62.32;95409.78;5076197;28;20448;-76
2023/09/07 08:57:31;;;;;;;8.67;7.87;;;;;;;24.49;61.08;95413.69;5074960;28;20472;-77
2023/09/07 08:59:58;;;;;;;7.97;7.17;;;;;;;24.34;63.10;95409.34;5074613;28;20437;-77
2023/09/07 09:02:25;;;;;;;11.83;7.83;;;;;;;24.38;61.58;95420.50;5074749;28;20471;-77
2023/09/07 09:04:53;;;;;;;13.60;8.63;;;;;;;24.37;62.72;95413.47;5074836;28;20487;-77
2023/09/07 09:07:20;;;;;;;8.73;7.23;;;;;;;24.29;63.81;95401.09;5022895;28;20445;-76
2023/09/07 09:09:47;;;;;;;10.50;8.50;;;;;;;24.48;63.03;95409.38;5074534;28;20879;-77
2023/09/07 09:12:14;;;;;;;18.70;8.60;;;;;;;24.43;63.10;95409.97;5074474;28;20927;-77
2023/09/07 09:14:44;;;;;;;8.77;8.00;;;;;;;24.37;62.96;95402.75;5074279;28;20437;-76
2023/09/07 09:17:13;;;;;;;9.60;7.90;;;;;;;24.37;63.10;95413.47;5074334;28;20476;-77
2023/09/07 09:19:41;;;;;;;11.63;7.70;;;;;;;24.22;63.84;95404.72;5073342;28;20464;-77
2023/09/07 09:22:09;;;;;;;12.10;9.00;;;;;;;24.23;64.66;95403.69;5074673;28;20790;-77
2023/09/07 09:24:36;;;;;;;10.10;7.33;;;;;;;24.26;63.07;95408.66;5074269;28;20488;-76
2023/09/07 09:27:03;;;;;;;9.27;7.97;;;;;;;24.20;63.58;95398.75;5074068;28;20451;-77
2023/09/07 09:29:33;;;;;;;9.10;8.20;;;;;;;24.23;64.32;95398.31;5073932;28;20793;-77
2023/09/07 09:32:04;;;;;;;8.67;7.87;;;;;;;24.26;63.97;95395.25;5076016;28;20440;-77
2023/09/07 09:34:35;;;;;;;11.73;7.80;;;;;;;24.29;65.17;95395.72;5075553;28;20452;-77
2023/09/07 09:37:03;;;;;;;8.40;7.60;;;;;;;24.19;62.78;95399.75;5074107;28;20456;-76
2023/09/07 09:39:31;;;;;;;8.23;7.50;;;;;;;24.34;62.54;95393.25;5073957;28;20437;-77
2023/09/07 09:41:59;;;;;;;9.73;7.63;;;;;;;24.45;62.14;95397.19;5055261;28;20448;-77
2023/09/07 09:44:26;;;;;;;9.50;8.23;;;;;;;24.44;62.30;95390.16;5074175;28;20445;-77
2023/09/07 09:46:54;;;;;;;8.60;7.70;;;;;;;24.42;61.83;95389.53;5073909;28;20887;-77
2023/09/07 09:49:22;;;;;;;8.23;7.43;;;;;;;24.37;63.31;95386.66;5073864;28;20996;-77
2023/09/07 09:51:50;;;;;;;11.40;7.57;;;;;;;24.42;64.09;95386.88;5073540;28;20529;-77
2023/09/07 09:54:17;;;;;;;10.50;7.47;;;;;;;24.45;62.50;95394.50;5073546;28;20494;-77
2023/09/07 09:56:46;;;;;;;7.90;7.10;;;;;;;24.37;62.17;95389.34;5073761;28;20444;-77
2023/09/07 09:59:13;;;;;;;8.80;7.37;;;;;;;24.55;62.59;95386.88;5021674;28;20459;-76
2023/09/07 10:01:45;;;;;;;10.93;7.80;;;;;;;24.60;61.06;95381.75;5073544;28;20449;-77
2023/09/07 10:04:14;;;;;;;8.10;7.40;;;;;;;24.61;60.61;95386.09;5073096;28;20949;-77
2023/09/07 10:06:51;;;;;;;8.90;8.00;;;;;;;24.78;61.22;95377.59;5073162;28;20477;-77
2023/09/07 10:09:19;;;;;;;10.50;7.30;;;;;;;24.90;60.36;95374.13;5073115;28;20483;-77
2023/09/07 10:11:53;;;;;;;7.37;6.67;;;;;;;25.01;57.80;95372.69;5073504;28;20448;-77
2023/09/07 10:14:20;;;;;;;13.17;7.33;;;;;;;25.15;57.36;95378.88;5072938;28;20495;-77
2023/09/07 10:16:48;;;;;;;12.03;6.97;;;;;;;25.27;57.63;95372.66;5072944;28;20445;-77
2023/09/07 10:19:16;;;;;;;7.60;6.83;;;;;;;25.40;59.62;95368.28;5073007;28;20784;-77
2023/09/07 10:21:43;;;;;;;7.67;6.97;;;;;;;25.41;58.28;95372.63;5072864;28;20950;-77
2023/09/07 10:24:10;;;;;;;9.13;8.23;;;;;;;25.43;58.13;95360.63;5072795;28;20818;-77
2023/09/07 10:26:38;;;;;;;8.10;7.03;;;;;;;25.42;57.88;95368.91;5072859;28;20476;-77
2023/09/07 10:29:06;;;;;;;13.10;7.60;;;;;;;25.21;56.17;95364.63;5072644;28;20491;-77
2023/09/07 10:31:33;;;;;;;7.43;6.73;;;;;;;25.15;57.12;95366.25;5072189;28;20437;-77
2023/09/07 10:34:10;;;;;;;10.53;7.23;;;;;;;25.19;56.99;95358.63;5072661;28;20437;-77
2023/09/07 10:36:38;;;;;;;7.20;6.50;;;;;;;25.11;56.69;95359.66;5072448;28;20529;-77
2023/09/07 10:39:05;;;;;;;7.37;6.67;;;;;;;24.96;57.34;95353.66;5072579;28;20476;-77
2023/09/07 10:41:41;;;;;;;8.33;7.53;;;;;;;24.94;58.47;95358.41;5072402;28;20519;-76
2023/09/07 10:44:12;;;;;;;10.23;8.43;;;;;;;24.90;59.02;95351.81;5072484;28;20444;-77
2023/09/07 10:46:40;;;;;;;7.73;6.83;;;;;;;24.74;59.66;95355.72;5072288;28;20899;-77
2023/09/07 10:49:10;;;;;;;7.83;7.17;;;;;;;24.79;58.65;95358.63;5072672;28;20505;-77
2023/09/07 10:51:42;;;;;;;8.17;7.43;;;;;;;24.66;59.18;95359.44;5072516;28;20452;-77
2023/09/07 10:54:15;;;;;;;8.20;7.20;;;;;;;24.53;59.55;95355.91;5071946;28;20493;-77
2023/09/07 10:56:44;;;;;;;10.33;7.57;;;;;;;24.55;60.20;95357.34;5072150;28;20528;-77
2023/09/07 10:59:12;;;;;;;9.43;7.50;;;;;;;24.42;59.40;95357.34;5072198;28;20447;-77
2023/09/07 11:01:39;;;;;;;10.00;8.33;;;;;;;24.47;60.21;95360.25;5072100;28;20768;-77
2023/09/07 11:04:08;;;;;;;11.80;7.90;;;;;;;24.49;60.82;95358.19;5072372;28;20436;-77
2023/09/07 11:06:35;;;;;;;8.90;8.07;;;;;;;24.47;60.13;95348.69;5071818;28;20510;-77
2023/09/07 11:09:04;;;;;;;12.47;7.50;;;;;;;24.45;60.02;95356.13;5072100;28;20915;-77
2023/09/07 11:11:34;;;;;;;8.30;7.50;;;;;;;24.45;60.24;95356.94;5072000;28;20444;-77
2023/09/07 11:14:00;;;;;;;11.63;8.10;;;;;;;24.43;60.62;95348.28;5072171;28;20444;-77
2023/09/07 11:16:30;;;;;;;13.30;7.63;;;;;;;24.38;61.41;95348.06;5072093;28;20449;-77
2023/09/07 11:18:58;;;;;;;13.03;7.10;;;;;;;24.23;63.23;95337.47;5071991;28;20445;-76
2023/09/07 11:21:25;;;;;;;11.07;6.93;;;;;;;24.14;62.68;95354.78;5071665;28;20441;-77